This is the latest recevied weather packets stored in our database for station/object KK7AZD-13. If no packets are shown the sender has not sent any weather packets the latest 10 day(s).
| Time | Temp. | Humidity | Pressure | Rain* | Wind** | Luminosity | Snow |
|---|---|---|---|---|---|---|---|
| 1788148407 | 60° F | 54% | 761.9 mmHg | 0 in | - | 0 W/m² | - |
| 1788147504 | 60° F | 51% | 761.6 mmHg | 0 in | - | 0 W/m² | - |
| 1788146600 | 64° F | 48% | 761.7 mmHg | 0 in | - | 0 W/m² | - |
| 1788145695 | 63° F | 47% | 761.6 mmHg | 0 in | - | 0 W/m² | - |
| 1788144793 | 66° F | 46% | 761.7 mmHg | 0 in | - | 0 W/m² | - |
| 1788143893 | 68° F | 46% | 761.7 mmHg | 0 in | - | 7 W/m² | - |
| 1788142992 | 71° F | 41% | 761.5 mmHg | 0 in | - | 16 W/m² | - |
| 1788142089 | 73° F | 37% | 761.6 mmHg | 0 in | - | 31 W/m² | - |
| 1788141185 | 74° F | 32% | 761.8 mmHg | 0 in | - | 31 W/m² | - |
| 1788140282 | 76° F | 29% | 761.7 mmHg | 0 in | - | 89 W/m² | - |
| 1788139378 | 75° F | 27% | 761.8 mmHg | 0 in | - | 123 W/m² | - |
| 1788138474 | 75° F | 29% | 761.8 mmHg | 0 in | - | 165 W/m² | - |
| 1788137572 | 76° F | 28% | 762.1 mmHg | 0 in | - | 190 W/m² | - |
| 1788136669 | 75° F | 28% | 761.8 mmHg | 0 in | - | 288 W/m² | - |
| 1788135764 | 75° F | 28% | 762.2 mmHg | 0 in | - | 330 W/m² | - |
| 1788134864 | 74° F | 29% | 762.1 mmHg | 0 in | - | 386 W/m² | - |
| 1788133964 | 73° F | 34% | 762.4 mmHg | 0 in | - | 421 W/m² | - |
| 1788133062 | 74° F | 36% | 762.3 mmHg | 0 in | - | 497 W/m² | - |
| 1788132160 | 73° F | 35% | 762.4 mmHg | 0 in | - | 500 W/m² | - |
| 1788131257 | 73° F | 37% | 762.4 mmHg | 0 in | - | 528 W/m² | - |
| 1788130353 | 76° F | 25% | 762.6 mmHg | 0 in | - | 580 W/m² | - |
| 1788129450 | 77° F | 24% | 762.7 mmHg | 0 in | - | 602 W/m² | - |
| 1788128547 | 75° F | 29% | 763 mmHg | 0 in | - | 571 W/m² | - |
| 1788127646 | 73° F | 31% | 763.4 mmHg | 0 in | - | 657 W/m² | - |
| 1788126745 | 73° F | 34% | 763.3 mmHg | 0 in | - | 646 W/m² | - |
* Rain latest hour (hover to see other rain measurements)
** Current wind speed in m/s (hover to see current wind gust speed)